Time;durP1;ratioP1;P1;durP2;ratioP2;P2;SDS_P1;SDS_P2;PMS_P1;PMS_P2;Temp;Humidity;BMP_temperature;BMP_pressure;BME280_temperature;BME280_humidity;BME280_pressure;Samples;Min_cycle;Max_cycle;Signal;HPM_P1;HPM_P2
2021/08/07 00:02:21;;;;;;;5.60;3.40;;;;;;;15.24;100.00;100311.06;3597440;39;20032;-63
2021/08/07 00:04:47;;;;;;;9.73;3.83;;;;;;;15.24;100.00;100314.59;3636546;22;20065;-63
2021/08/07 00:07:14;;;;;;;8.73;4.03;;;;;;;15.20;100.00;100309.72;3617952;39;20367;-63
2021/08/07 00:09:41;;;;;;;10.38;3.80;;;;;;;15.20;100.00;100307.03;3618214;39;20043;-64
2021/08/07 00:12:08;;;;;;;9.43;4.15;;;;;;;15.18;100.00;100309.91;3617414;39;20047;-63
2021/08/07 00:14:34;;;;;;;10.18;3.60;;;;;;;15.21;100.00;100314.13;3619545;39;20291;-63
2021/08/07 00:17:01;;;;;;;10.90;4.07;;;;;;;15.20;100.00;100323.28;3619755;39;20055;-63
2021/08/07 00:19:27;;;;;;;8.30;4.10;;;;;;;15.19;100.00;100311.59;3619389;39;20035;-63
2021/08/07 00:21:54;;;;;;;9.05;3.53;;;;;;;15.24;100.00;100316.47;3619543;39;20043;-63
2021/08/07 00:24:20;;;;;;;9.13;4.07;;;;;;;15.23;100.00;100317.50;3618803;39;20036;-63
2021/08/07 00:26:48;;;;;;;7.97;3.75;;;;;;;15.21;100.00;100308.72;3619661;39;20131;-64
2021/08/07 00:29:14;;;;;;;7.60;3.78;;;;;;;15.20;100.00;100312.44;3619343;39;20041;-63
2021/08/07 00:31:42;;;;;;;8.60;3.65;;;;;;;15.18;100.00;100307.19;3619443;39;20039;-63
2021/08/07 00:34:09;;;;;;;10.15;3.42;;;;;;;15.20;100.00;100317.88;3618892;39;20035;-63
2021/08/07 00:36:35;;;;;;;8.93;3.65;;;;;;;15.21;100.00;100316.84;3619517;39;20035;-63
2021/08/07 00:39:01;;;;;;;7.10;3.45;;;;;;;15.15;100.00;100306.69;3619401;39;20033;-64
2021/08/07 00:41:28;;;;;;;7.22;3.33;;;;;;;15.14;100.00;100310.44;3619116;39;20044;-64
2021/08/07 00:43:56;;;;;;;9.10;3.60;;;;;;;15.11;100.00;100308.09;3619401;39;20045;-63
2021/08/07 00:46:22;;;;;;;7.63;3.95;;;;;;;15.03;100.00;100307.13;3618962;39;20426;-63
2021/08/07 00:48:49;;;;;;;9.38;4.00;;;;;;;15.04;100.00;100302.53;3619271;39;20035;-63
2021/08/07 00:51:17;;;;;;;9.02;3.72;;;;;;;15.03;100.00;100307.13;3619468;39;20035;-63
2021/08/07 00:53:43;;;;;;;8.07;3.53;;;;;;;14.98;100.00;100304.09;3619405;39;20041;-63
2021/08/07 00:56:10;;;;;;;8.43;3.92;;;;;;;14.99;100.00;100305.78;3618104;39;20370;-64
2021/08/07 00:58:36;;;;;;;5.82;3.58;;;;;;;14.98;100.00;100304.09;3618106;39;20039;-63
2021/08/07 01:01:10;;;;;;;8.50;3.45;;;;;;;14.98;100.00;100298.69;3619291;39;20064;-64
2021/08/07 01:03:45;;;;;;;5.90;3.38;;;;;;;14.98;100.00;100295.13;3619444;39;20050;-63
2021/08/07 01:06:21;;;;;;;10.27;4.00;;;;;;;15.01;100.00;100298.31;3618656;39;20083;-64
2021/08/07 01:08:56;;;;;;;6.90;3.30;;;;;;;15.00;100.00;100293.94;3619315;39;20050;-64
2021/08/07 01:11:28;;;;;;;8.45;3.00;;;;;;;15.05;100.00;100290.69;3619104;39;20412;-64
2021/08/07 01:13:59;;;;;;;6.82;3.15;;;;;;;15.04;100.00;100297.97;3619131;39;20043;-64
2021/08/07 01:16:31;;;;;;;8.05;3.58;;;;;;;15.07;100.00;100304.91;3618860;39;20139;-64
2021/08/07 01:19:00;;;;;;;9.60;2.92;;;;;;;15.13;100.00;100295.22;3618981;39;20038;-64
2021/08/07 01:21:34;;;;;;;5.25;2.72;;;;;;;15.13;100.00;100289.78;3618909;39;20034;-64
2021/08/07 01:24:06;;;;;;;9.70;3.10;;;;;;;15.15;100.00;100295.84;3619219;39;20347;-64
2021/08/07 01:26:45;;;;;;;7.28;2.70;;;;;;;15.07;100.00;100286.78;3618762;39;20039;-64
2021/08/07 01:29:14;;;;;;;5.20;2.90;;;;;;;15.09;100.00;100293.88;3618670;39;20426;-64
2021/08/07 01:31:41;;;;;;;;;;;;;;;15.07;100.00;100291.34;3619517;39;20041;-63
2021/08/07 01:34:07;;;;;;;7.32;2.97;;;;;;;15.09;100.00;100285.75;3618517;39;20286;-64
2021/08/07 01:39:54;;;;;;;5.95;2.88;;;;;;;15.11;100.00;100289.13;3649605;22;20328;-63
2021/08/07 01:42:20;;;;;;;7.22;2.88;;;;;;;15.10;100.00;100290.16;3618694;39;20035;-63
2021/08/07 01:44:48;;;;;;;9.65;2.90;;;;;;;15.09;100.00;100293.88;3618930;39;20134;-64
2021/08/07 01:47:20;;;;;;;9.40;3.00;;;;;;;15.04;100.00;100291.69;3619264;39;20065;-63
2021/08/07 01:49:54;;;;;;;7.28;2.92;;;;;;;15.07;100.00;100285.91;3618669;39;20426;-63
2021/08/07 01:52:26;;;;;;;4.90;3.00;;;;;;;15.06;100.00;100278.81;3618450;39;20049;-63
2021/08/07 01:54:59;;;;;;;10.32;3.58;;;;;;;15.00;100.00;100280.38;3618968;39;20063;-63
2021/08/07 01:57:28;;;;;;;12.40;3.20;;;;;;;14.90;100.00;100277.06;3618763;39;20379;-63
2021/08/07 01:59:57;;;;;;;7.18;2.63;;;;;;;14.85;100.00;100276.75;3618672;39;20023;-62
2021/08/07 02:02:25;;;;;;;5.82;2.85;;;;;;;14.80;100.00;100269.16;3618911;39;20055;-63
2021/08/07 02:04:51;;;;;;;8.50;3.60;;;;;;;14.74;100.00;100274.44;3619056;39;20079;-62
2021/08/07 02:07:18;;;;;;;9.07;2.90;;;;;;;14.66;100.00;100280.75;3618978;39;20049;-64
2021/08/07 02:09:45;;;;;;;7.88;3.28;;;;;;;14.65;100.00;100279.03;3618736;39;20027;-62
2021/08/07 02:12:12;;;;;;;7.78;3.63;;;;;;;14.68;100.00;100271.41;3618449;39;20789;-63
2021/08/07 02:14:39;;;;;;;6.03;3.30;;;;;;;14.64;100.00;100269.25;3618406;39;20062;-63
2021/08/07 02:17:08;;;;;;;12.65;3.40;;;;;;;14.59;100.00;100272.47;3618811;39;20043;-63
2021/08/07 02:19:38;;;;;;;6.82;3.22;;;;;;;14.52;100.00;100268.78;3618937;39;20041;-63
2021/08/07 02:22:05;;;;;;;14.73;4.07;;;;;;;14.47;100.00;100273.84;3618364;39;20041;-63
2021/08/07 02:24:32;;;;;;;9.48;4.07;;;;;;;14.50;100.00;100274.38;3618493;39;20407;-64
2021/08/07 02:27:00;;;;;;;8.20;3.50;;;;;;;14.48;100.00;100275.56;3618974;39;20035;-64
2021/08/07 02:29:28;;;;;;;14.63;3.78;;;;;;;14.42;100.00;100281.69;3618465;39;20031;-64
2021/08/07 02:31:56;;;;;;;7.75;3.78;;;;;;;14.40;100.00;100275.56;3618570;39;20111;-64
2021/08/07 02:37:28;;;;;;;12.52;3.88;;;;;;;14.26;100.00;100271.75;3644192;22;20062;-64
2021/08/07 02:39:55;;;;;;;10.23;3.90;;;;;;;14.27;100.00;100262.63;3608583;39;20044;-64
2021/08/07 02:42:22;;;;;;;7.85;3.70;;;;;;;14.27;100.00;100268.88;3608396;39;20056;-64
2021/08/07 02:44:49;;;;;;;12.38;3.80;;;;;;;14.25;100.00;100270.91;3608216;39;20075;-65
2021/08/07 02:47:15;;;;;;;14.27;3.63;;;;;;;14.22;100.00;100275.81;3608808;39;20042;-64
2021/08/07 02:49:42;;;;;;;13.18;4.03;;;;;;;14.19;100.00;100271.59;3608106;39;20031;-65
2021/08/07 02:52:09;;;;;;;9.30;3.90;;;;;;;14.15;100.00;100272.97;3607876;39;20035;-64
2021/08/07 02:54:37;;;;;;;14.32;4.38;;;;;;;14.09;100.00;100281.78;3608448;39;20050;-65
2021/08/07 02:57:04;;;;;;;13.93;4.40;;;;;;;14.00;100.00;100286.34;3605857;39;20398;-65
2021/08/07 02:59:31;;;;;;;10.82;3.65;;;;;;;14.01;100.00;100279.94;3608394;39;20048;-64
2021/08/07 03:01:57;;;;;;;13.32;4.40;;;;;;;13.92;100.00;100281.81;3607927;39;20030;-63
2021/08/07 03:04:23;;;;;;;12.05;4.03;;;;;;;13.89;100.00;100287.56;3608024;39;20103;-64
2021/08/07 03:06:50;;;;;;;11.02;4.00;;;;;;;13.85;100.00;100272.69;3608484;39;20061;-64
2021/08/07 03:09:16;;;;;;;13.02;4.65;;;;;;;13.80;100.00;100284.03;3608148;39;20038;-64
2021/08/07 03:11:44;;;;;;;9.63;4.32;;;;;;;13.78;100.00;100280.66;3608584;39;20058;-64
2021/08/07 03:14:11;;;;;;;12.48;5.10;;;;;;;13.80;100.00;100273.22;3607509;39;20040;-64
2021/08/07 03:16:37;;;;;;;11.45;4.07;;;;;;;13.77;100.00;100286.25;3608211;39;20040;-64
2021/08/07 03:19:04;;;;;;;10.63;5.13;;;;;;;13.70;100.00;100277.13;3608281;39;20060;-64
2021/08/07 03:21:30;;;;;;;11.60;4.65;;;;;;;13.69;100.00;100278.97;3600936;39;20036;-64
2021/08/07 03:23:57;;;;;;;14.52;4.60;;;;;;;13.64;100.00;100278.66;3602856;39;20433;-64
2021/08/07 03:26:23;;;;;;;14.10;4.88;;;;;;;13.58;100.00;100272.06;3606841;39;20050;-64
2021/08/07 03:28:51;;;;;;;10.48;4.53;;;;;;;13.55;100.00;100271.56;3607836;39;20039;-64
2021/08/07 03:31:18;;;;;;;20.10;5.55;;;;;;;13.60;100.00;100278.16;3607882;39;20040;-64
2021/08/07 03:33:44;;;;;;;11.15;5.03;;;;;;;13.60;100.00;100271.88;3607995;39;20039;-64
2021/08/07 03:36:12;;;;;;;16.48;5.95;;;;;;;13.59;100.00;100278.31;3607403;39;20061;-64
2021/08/07 03:38:38;;;;;;;11.27;5.55;;;;;;;13.65;100.00;100272.25;3608047;39;20038;-64
2021/08/07 03:41:05;;;;;;;13.45;5.22;;;;;;;13.69;100.00;100270.03;3607819;39;20035;-64
2021/08/07 03:43:31;;;;;;;14.93;5.82;;;;;;;13.65;100.00;100267.66;3608011;39;20038;-64
2021/08/07 03:45:59;;;;;;;14.15;5.45;;;;;;;13.68;100.00;100271.88;3607686;39;20038;-64
2021/08/07 03:48:25;;;;;;;12.00;5.28;;;;;;;13.66;100.00;100272.06;3608534;39;20412;-65
2021/08/07 03:50:52;;;;;;;11.45;5.85;;;;;;;13.67;100.00;100281.84;3609384;39;20047;-63
2021/08/07 03:53:18;;;;;;;11.77;6.43;;;;;;;13.63;100.00;100282.34;3616568;39;20043;-64
2021/08/07 03:55:45;;;;;;;17.27;6.00;;;;;;;13.60;100.00;100283.56;3609008;39;20043;-63
2021/08/07 03:58:11;;;;;;;11.32;5.85;;;;;;;13.65;100.00;100286.59;3606744;39;20036;-64
2021/08/07 04:00:38;;;;;;;11.25;5.63;;;;;;;13.66;100.00;100287.44;3609357;39;20044;-64
2021/08/07 04:03:06;;;;;;;12.07;6.40;;;;;;;13.69;100.00;100280.84;3609386;39;20072;-64
2021/08/07 04:05:32;;;;;;;13.98;6.80;;;;;;;13.74;100.00;100279.31;3609126;39;20053;-64
2021/08/07 04:08:03;;;;;;;15.25;7.30;;;;;;;13.82;100.00;100281.16;3609952;39;20032;-63
2021/08/07 04:10:30;;;;;;;14.13;7.57;;;;;;;13.88;100.00;100277.75;3608953;39;20049;-63
2021/08/07 04:13:18;;;;;;;17.58;7.60;;;;;;;13.94;100.00;100276.22;3641154;22;20063;-63
2021/08/07 04:15:44;;;;;;;16.77;8.55;;;;;;;13.99;100.00;100271.16;3577895;40;20037;-64
2021/08/07 04:18:12;;;;;;;15.13;7.82;;;;;;;14.11;100.00;100268.94;3579000;40;20033;-64
2021/08/07 04:20:38;;;;;;;14.32;7.53;;;;;;;14.13;100.00;100269.59;3578916;40;20068;-64
2021/08/07 04:23:06;;;;;;;17.02;7.93;;;;;;;14.15;100.00;100267.56;3577752;40;20033;-64
2021/08/07 04:25:33;;;;;;;11.80;7.30;;;;;;;14.21;100.00;100275.00;3574496;40;20033;-64
2021/08/07 04:27:59;;;;;;;14.73;7.82;;;;;;;14.28;100.00;100275.97;3579019;40;20303;-63
2021/08/07 04:30:26;;;;;;;13.15;7.20;;;;;;;14.32;100.00;100271.03;3578630;40;20049;-64
2021/08/07 04:32:52;;;;;;;13.77;6.93;;;;;;;14.41;100.00;100263.72;3578776;40;20047;-64
2021/08/07 04:35:20;;;;;;;15.70;7.75;;;;;;;14.47;100.00;100263.03;3578894;40;20048;-65
2021/08/07 04:37:49;;;;;;;18.93;6.47;;;;;;;14.52;100.00;100258.78;3578989;40;20048;-63
2021/08/07 04:40:16;;;;;;;11.43;7.20;;;;;;;14.60;100.00;100263.28;3578649;40;20029;-64
2021/08/07 04:42:43;;;;;;;12.20;6.95;;;;;;;14.60;100.00;100251.63;3578933;40;20069;-64
2021/08/07 04:45:10;;;;;;;15.18;8.20;;;;;;;14.57;100.00;100263.66;3578745;40;20041;-64
2021/08/07 04:47:37;;;;;;;16.70;7.10;;;;;;;14.52;100.00;100271.47;3578960;40;20067;-64
2021/08/07 04:50:04;;;;;;;12.43;7.22;;;;;;;14.51;100.00;100267.06;3578409;40;20039;-64
2021/08/07 04:52:32;;;;;;;10.90;6.85;;;;;;;14.54;100.00;100267.56;3578745;40;20466;-63
2021/08/07 04:54:59;;;;;;;17.52;8.07;;;;;;;14.57;100.00;100269.06;3578892;40;20036;-64
2021/08/07 04:57:25;;;;;;;16.40;7.72;;;;;;;14.60;100.00;100263.28;3576495;40;20295;-63
2021/08/07 04:59:51;;;;;;;18.50;8.23;;;;;;;14.65;100.00;100269.06;3578571;40;20052;-63
2021/08/07 05:02:18;;;;;;;12.48;7.22;;;;;;;14.59;100.00;100267.06;3578473;40;20041;-64
2021/08/07 05:04:44;;;;;;;12.98;6.97;;;;;;;14.65;100.00;100258.25;3578833;40;20029;-64
2021/08/07 05:07:11;;;;;;;10.18;6.90;;;;;;;14.75;100.00;100257.16;3579205;40;20031;-63
2021/08/07 05:09:38;;;;;;;13.40;7.30;;;;;;;14.75;100.00;100254.44;3578742;40;20045;-63
2021/08/07 05:12:05;;;;;;;13.73;7.28;;;;;;;14.81;100.00;100256.44;3578189;40;20047;-64
2021/08/07 05:14:32;;;;;;;13.20;6.93;;;;;;;14.81;100.00;100264.56;3584625;40;20064;-64
2021/08/07 05:16:58;;;;;;;17.50;6.80;;;;;;;14.81;100.00;100256.44;3588726;40;20032;-64
2021/08/07 05:19:25;;;;;;;10.65;6.70;;;;;;;14.80;100.00;100252.06;3588290;40;20032;-63
2021/08/07 05:21:51;;;;;;;11.95;7.05;;;;;;;14.87;100.00;100251.16;3588720;40;20079;-64
2021/08/07 05:24:17;;;;;;;11.82;6.63;;;;;;;14.89;100.00;100251.00;3581943;40;20036;-64
2021/08/07 05:26:45;;;;;;;13.82;6.55;;;;;;;14.94;100.00;100247.72;3588777;40;20121;-64
2021/08/07 05:29:12;;;;;;;12.45;6.80;;;;;;;14.98;100.00;100259.91;3588791;40;20049;-63
2021/08/07 05:31:38;;;;;;;12.48;6.90;;;;;;;14.88;100.00;100261.00;3588463;40;20380;-64
2021/08/07 05:36:34;;;;;;;12.82;7.13;;;;;;;14.94;100.00;100259.41;3629066;22;20326;-63
2021/08/07 05:39:00;;;;;;;11.80;7.07;;;;;;;14.97;100.00;100259.06;3598974;39;20058;-64
2021/08/07 05:41:26;;;;;;;13.63;6.60;;;;;;;15.02;100.00;100264.78;3598587;39;20044;-64
2021/08/07 05:43:54;;;;;;;13.15;6.60;;;;;;;14.97;100.00;100259.06;3598538;40;20044;-64
2021/08/07 05:46:21;;;;;;;12.77;6.38;;;;;;;15.01;100.00;100259.53;3598430;39;20039;-64
2021/08/07 05:48:47;;;;;;;12.10;6.90;;;;;;;14.96;100.00;100267.34;3598803;39;20120;-64
2021/08/07 05:51:13;;;;;;;13.15;6.35;;;;;;;14.88;100.00;100265.53;3598682;39;20051;-64
2021/08/07 05:53:40;;;;;;;10.05;6.28;;;;;;;14.88;100.00;100266.41;3598838;39;20032;-64
2021/08/07 05:56:06;;;;;;;14.43;6.63;;;;;;;14.86;100.00;100270.31;3597824;39;20141;-64
2021/08/07 05:58:37;;;;;;;11.27;5.72;;;;;;;14.85;100.00;100265.91;3598341;39;20036;-63
2021/08/07 06:01:05;;;;;;;9.57;5.90;;;;;;;14.81;100.00;100262.72;3598303;39;20398;-63
2021/08/07 06:03:32;;;;;;;12.98;6.68;;;;;;;14.81;100.00;100262.72;3598597;39;20319;-63
2021/08/07 06:05:58;;;;;;;10.82;5.55;;;;;;;14.87;100.00;100263.88;3598321;39;20298;-63
2021/08/07 06:08:25;;;;;;;14.95;6.15;;;;;;;15.01;100.00;100264.97;3598203;39;20043;-63
2021/08/07 06:10:51;;;;;;;15.00;5.88;;;;;;;14.92;100.00;100269.59;3598074;39;20050;-64
2021/08/07 06:13:18;;;;;;;10.73;5.90;;;;;;;15.03;100.00;100263.78;3598654;40;20028;-64
2021/08/07 06:15:44;;;;;;;9.93;5.55;;;;;;;14.97;100.00;100264.50;3598075;39;20375;-63
2021/08/07 06:18:12;;;;;;;10.88;5.50;;;;;;;15.01;100.00;100263.09;3598390;39;20051;-64
2021/08/07 06:20:39;;;;;;;11.30;5.00;;;;;;;14.97;100.00;100253.66;3597980;39;20034;-63
2021/08/07 06:23:05;;;;;;;11.07;5.45;;;;;;;14.96;100.00;100254.66;3596723;39;20030;-63
2021/08/07 06:25:32;;;;;;;10.68;4.90;;;;;;;14.85;100.00;100250.47;3594141;39;20306;-62
2021/08/07 06:27:58;;;;;;;14.32;5.22;;;;;;;15.02;100.00;100244.97;3665513;22;20052;-62
2021/08/07 06:30:27;;;;;;;9.23;4.82;;;;;;;15.11;100.00;100252.03;3598030;39;20064;-62
2021/08/07 06:32:54;;;;;;;11.75;4.82;;;;;;;15.20;100.00;100242.78;3598487;39;20326;-63
2021/08/07 06:35:22;;;;;;;12.93;4.95;;;;;;;15.46;100.00;100246.13;3598085;39;20036;-63
2021/08/07 06:37:49;;;;;;;10.37;4.40;;;;;;;15.55;100.00;100245.06;3598311;39;20048;-62
2021/08/07 06:40:17;;;;;;;7.60;3.97;;;;;;;15.66;100.00;100243.75;3598030;39;20040;-64
2021/08/07 06:42:44;;;;;;;11.32;4.30;;;;;;;15.94;100.00;100241.28;3598326;39;20102;-63
2021/08/07 06:45:11;;;;;;;9.13;3.97;;;;;;;15.79;100.00;100241.28;3598256;39;20367;-62
2021/08/07 06:47:38;;;;;;;11.32;3.65;;;;;;;15.59;100.00;100241.78;3598072;39;20036;-63
2021/08/07 06:50:06;;;;;;;8.48;3.40;;;;;;;15.48;100.00;100244.94;3598041;39;20040;-62
2021/08/07 06:52:34;;;;;;;10.43;3.08;;;;;;;15.53;100.00;100247.09;3598470;39;20035;-63
2021/08/07 06:55:01;;;;;;;8.90;3.47;;;;;;;15.52;100.00;100238.13;3597899;39;20040;-62
2021/08/07 06:57:28;;;;;;;6.03;3.08;;;;;;;15.68;100.00;100245.25;3599698;39;20039;-63
2021/08/07 06:59:54;;;;;;;8.63;3.25;;;;;;;15.75;100.00;100246.22;3600803;39;20128;-64
2021/08/07 07:02:21;;;;;;;13.43;3.42;;;;;;;15.70;100.00;100243.19;3597892;39;20043;-62
2021/08/07 07:04:49;;;;;;;5.65;2.90;;;;;;;15.67;100.00;100243.56;3598101;39;20295;-62
2021/08/07 07:07:16;;;;;;;6.82;3.17;;;;;;;15.68;100.00;100245.25;3598290;39;20036;-62
2021/08/07 07:09:43;;;;;;;11.48;3.70;;;;;;;15.73;100.00;100239.28;3597937;39;20333;-61
2021/08/07 07:12:11;;;;;;;6.60;3.15;;;;;;;15.81;100.00;100235.66;3597659;39;20509;-62
2021/08/07 07:14:37;;;;;;;5.05;2.83;;;;;;;15.96;100.00;100235.66;3598070;39;20036;-62
2021/08/07 07:17:05;;;;;;;6.93;3.50;;;;;;;15.85;100.00;100235.09;3598025;39;20060;-62
2021/08/07 07:19:31;;;;;;;6.72;3.05;;;;;;;15.85;100.00;100239.69;3597898;39;20035;-63
2021/08/07 07:21:57;;;;;;;8.35;3.92;;;;;;;16.08;100.00;100229.59;3597913;39;20309;-62
2021/08/07 07:24:24;;;;;;;7.75;3.55;;;;;;;16.43;100.00;100237.13;3597522;39;20040;-62
2021/08/07 07:26:52;;;;;;;10.45;3.50;;;;;;;16.63;100.00;100237.38;3598379;39;20051;-62
2021/08/07 07:29:18;;;;;;;9.65;3.60;;;;;;;16.92;100.00;100235.66;3597937;39;20193;-62
2021/08/07 07:31:45;;;;;;;10.38;3.33;;;;;;;16.85;100.00;100226.56;3598161;39;20038;-62
2021/08/07 07:34:11;;;;;;;6.47;3.00;;;;;;;16.93;100.00;100238.19;3597759;39;20071;-62
2021/08/07 07:36:38;;;;;;;7.28;2.40;;;;;;;17.05;100.00;100233.06;3597941;39;20039;-62
2021/08/07 07:39:04;;;;;;;9.80;2.67;;;;;;;16.78;100.00;100235.47;3598162;39;20029;-62
2021/08/07 07:41:31;;;;;;;8.35;2.60;;;;;;;16.64;100.00;100228.22;3597699;39;20069;-62
2021/08/07 07:43:59;;;;;;;7.03;2.53;;;;;;;16.76;100.00;100232.09;3597619;39;20042;-62
2021/08/07 07:46:25;;;;;;;8.48;2.35;;;;;;;16.82;100.00;100234.03;3597257;39;20060;-62
2021/08/07 07:48:51;;;;;;;4.07;2.08;;;;;;;17.15;100.00;100233.59;3597842;39;20400;-62
2021/08/07 07:51:18;;;;;;;9.48;2.50;;;;;;;17.42;100.00;100241.16;3597997;39;20040;-62
2021/08/07 07:53:44;;;;;;;6.25;2.35;;;;;;;17.46;100.00;100235.13;3597628;39;20032;-61
2021/08/07 07:56:11;;;;;;;6.45;2.70;;;;;;;17.31;100.00;100237.91;3597407;39;20040;-62
2021/08/07 07:58:37;;;;;;;5.55;2.40;;;;;;;17.16;100.00;100237.97;3597706;39;20406;-62
2021/08/07 08:01:05;;;;;;;5.18;2.35;;;;;;;17.26;100.00;100242.25;3597557;39;20040;-62
2021/08/07 08:03:31;;;;;;;6.28;2.05;;;;;;;17.45;100.00;100241.56;3597852;39;20035;-62
2021/08/07 08:05:58;;;;;;;5.25;2.08;;;;;;;17.18;100.00;100240.47;3597579;39;20617;-62
2021/08/07 08:08:24;;;;;;;6.78;2.10;;;;;;;17.13;100.00;100240.25;3597326;39;20078;-62
2021/08/07 08:10:51;;;;;;;5.95;1.88;;;;;;;17.10;100.00;100227.88;3597427;39;20037;-62
2021/08/07 08:13:19;;;;;;;6.63;2.40;;;;;;;17.21;100.00;100229.25;3597773;39;20060;-62
2021/08/07 08:15:46;;;;;;;6.47;2.03;;;;;;;17.23;100.00;100223.63;3599334;39;20043;-62
2021/08/07 08:18:14;;;;;;;5.72;1.95;;;;;;;17.24;100.00;100225.28;3597571;39;20036;-62
2021/08/07 08:20:41;;;;;;;5.57;1.88;;;;;;;17.47;100.00;100228.59;3597415;39;20039;-62
2021/08/07 08:23:07;;;;;;;7.07;2.05;;;;;;;17.39;100.00;100222.47;3597488;39;20048;-62
2021/08/07 08:25:34;;;;;;;8.60;2.40;;;;;;;17.54;100.00;100222.41;3597875;39;20289;-63
2021/08/07 08:28:00;;;;;;;3.13;2.05;;;;;;;17.69;100.00;100214.97;3597518;39;20039;-62
2021/08/07 08:30:27;;;;;;;4.47;2.20;;;;;;;17.89;100.00;100216.97;3597420;39;20294;-62
2021/08/07 08:32:54;;;;;;;7.90;1.83;;;;;;;17.98;100.00;100210.38;3597615;39;20068;-63
2021/08/07 08:35:22;;;;;;;11.27;2.90;;;;;;;18.30;100.00;100210.72;3598931;39;20037;-63
2021/08/07 08:37:48;;;;;;;5.35;2.10;;;;;;;18.21;100.00;100213.63;3598769;39;20044;-63
2021/08/07 08:40:15;;;;;;;4.78;1.85;;;;;;;18.10;100.00;100206.03;3598564;39;20034;-62
2021/08/07 08:42:42;;;;;;;5.05;1.98;;;;;;;17.91;100.00;100206.78;3599080;39;20048;-63
2021/08/07 08:45:10;;;;;;;4.97;2.10;;;;;;;18.02;100.00;100208.91;3601559;39;20035;-63
2021/08/07 08:47:38;;;;;;;5.80;1.73;;;;;;;17.94;100.00;100201.75;3603718;39;20028;-63
2021/08/07 08:50:06;;;;;;;6.38;2.03;;;;;;;18.04;100.00;100206.84;3598604;39;20302;-63
2021/08/07 08:52:37;;;;;;;7.45;1.80;;;;;;;18.05;100.00;100203.09;3599238;39;20052;-63
2021/08/07 08:55:04;;;;;;;8.45;1.88;;;;;;;18.06;100.00;100193.84;3599079;39;20047;-63
2021/08/07 08:57:31;;;;;;;6.95;1.98;;;;;;;17.92;100.00;100187.50;3596529;39;20047;-63
2021/08/07 08:59:57;;;;;;;7.20;2.13;;;;;;;18.30;100.00;100186.19;3598699;39;20044;-64
2021/08/07 09:02:24;;;;;;;6.55;1.80;;;;;;;18.39;100.00;100185.00;3598728;39;20054;-63
2021/08/07 09:04:50;;;;;;;8.20;2.13;;;;;;;18.60;100.00;100184.00;3598780;39;20024;-63
2021/08/07 09:07:17;;;;;;;8.15;1.90;;;;;;;18.69;100.00;100190.13;3598776;39;20068;-64
2021/08/07 09:09:47;;;;;;;5.32;2.10;;;;;;;18.65;100.00;100189.66;3598771;39;20042;-63
2021/08/07 09:12:14;;;;;;;8.30;1.88;;;;;;;18.83;100.00;100185.53;3598839;39;20469;-63
2021/08/07 09:14:41;;;;;;;6.05;2.00;;;;;;;18.88;100.00;100175.72;3598988;39;20368;-64
2021/08/07 09:17:17;;;;;;;5.07;1.67;;;;;;;18.76;100.00;100171.03;3599076;39;20369;-63
2021/08/07 09:19:48;;;;;;;7.60;1.95;;;;;;;18.87;100.00;100181.38;3598682;39;20378;-63
2021/08/07 09:22:17;;;;;;;4.95;1.90;;;;;;;19.18;100.00;100166.28;3598359;39;20032;-63
2021/08/07 09:24:56;;;;;;;5.63;2.60;;;;;;;19.18;100.00;100169.03;3598799;39;20068;-63
2021/08/07 09:27:28;;;;;;;5.18;1.75;;;;;;;18.87;100.00;100165.00;3662912;22;20074;-63
2021/08/07 09:29:55;;;;;;;4.13;1.88;;;;;;;18.65;100.00;100165.13;3598367;39;20035;-64
2021/08/07 09:32:21;;;;;;;5.43;1.98;;;;;;;19.00;100.00;100161.47;3598273;39;20075;-63
2021/08/07 09:35:07;;;;;;;4.32;1.80;;;;;;;19.53;100.00;100164.16;3598582;39;20051;-63
2021/08/07 09:37:33;;;;;;;5.30;1.75;;;;;;;20.17;100.00;100150.78;3598670;39;20028;-63
2021/08/07 09:40:03;;;;;;;3.78;1.95;;;;;;;20.51;100.00;100156.94;3598516;39;20372;-63
2021/08/07 09:42:31;;;;;;;4.15;1.60;;;;;;;20.56;100.00;100146.16;3598760;39;20401;-63
2021/08/07 09:45:02;;;;;;;4.25;1.50;;;;;;;20.61;100.00;100143.63;3598392;39;20031;-63
2021/08/07 09:47:29;;;;;;;4.57;1.92;;;;;;;20.52;100.00;100142.19;3598591;39;20041;-64
2021/08/07 09:49:55;;;;;;;5.10;1.70;;;;;;;20.83;100.00;100138.66;3598614;39;20040;-63
2021/08/07 09:52:22;;;;;;;6.05;1.52;;;;;;;21.09;100.00;100130.47;3598513;39;20079;-63
2021/08/07 09:54:48;;;;;;;6.10;1.25;;;;;;;21.09;100.00;100127.72;3598979;39;20055;-64
2021/08/07 09:57:27;;;;;;;5.57;1.90;;;;;;;20.81;100.00;100123.53;3596543;39;20028;-64
2021/08/07 09:59:54;;;;;;;3.75;1.40;;;;;;;20.60;100.00;100111.88;3598298;39;20388;-64
2021/08/07 10:02:23;;;;;;;2.95;1.25;;;;;;;20.65;100.00;100120.22;3598708;39;20054;-64
2021/08/07 10:04:50;;;;;;;3.42;1.27;;;;;;;20.88;100.00;100118.84;3598758;39;20044;-63
2021/08/07 10:07:16;;;;;;;4.22;1.60;;;;;;;20.75;100.00;100113.47;3598725;39;20047;-64
2021/08/07 10:09:43;;;;;;;4.95;1.52;;;;;;;20.35;100.00;100114.53;3598368;39;20035;-64
2021/08/07 10:12:11;;;;;;;4.40;1.52;;;;;;;20.63;100.00;100105.13;3597967;39;20087;-64
2021/08/07 10:14:41;;;;;;;3.83;1.33;;;;;;;20.32;100.00;100104.06;3598382;39;20291;-64
2021/08/07 10:17:09;;;;;;;5.63;1.92;;;;;;;19.75;100.00;100106.59;3598594;39;20036;-64
2021/08/07 10:19:38;;;;;;;4.78;1.90;;;;;;;19.54;100.00;100107.69;3598391;39;20044;-64
2021/08/07 10:22:06;;;;;;;6.03;1.60;;;;;;;19.51;100.00;100103.50;3598132;39;20036;-63
2021/08/07 10:24:33;;;;;;;5.75;1.90;;;;;;;19.42;100.00;100108.34;3598169;39;20113;-64
2021/08/07 10:27:00;;;;;;;4.40;1.98;;;;;;;19.10;100.00;100109.25;3598366;39;20058;-63
2021/08/07 10:29:33;;;;;;;8.43;2.20;;;;;;;18.26;100.00;100111.41;3598430;39;20048;-62
2021/08/07 10:32:03;;;;;;;8.70;2.10;;;;;;;18.06;100.00;100105.88;3598651;39;20044;-63
2021/08/07 10:34:32;;;;;;;8.13;3.10;;;;;;;17.87;100.00;100086.50;3598235;39;20051;-64
2021/08/07 10:36:59;;;;;;;7.80;3.25;;;;;;;17.89;100.00;100089.88;3598277;39;20028;-63
2021/08/07 10:39:25;;;;;;;7.88;2.90;;;;;;;18.27;100.00;100102.16;3598190;39;20036;-63
2021/08/07 10:42:05;;;;;;;5.53;3.28;;;;;;;19.00;100.00;100090.56;3624199;22;20453;-63
2021/08/07 10:44:33;;;;;;;7.88;2.83;;;;;;;19.74;100.00;100074.88;3662309;22;20035;-62
2021/08/07 10:47:01;;;;;;;5.27;2.30;;;;;;;20.19;100.00;100063.97;3608573;39;20039;-62
2021/08/07 10:49:36;;;;;;;4.85;2.40;;;;;;;20.34;100.00;100062.84;3608415;39;20464;-62
2021/08/07 10:52:06;;;;;;;7.10;2.20;;;;;;;19.83;100.00;100050.91;3608012;39;20048;-62
2021/08/07 10:54:35;;;;;;;7.25;2.40;;;;;;;20.03;100.00;100061.75;3608683;39;20028;-62
2021/08/07 10:57:03;;;;;;;4.53;1.80;;;;;;;19.99;100.00;100055.88;3605732;39;20035;-63
2021/08/07 10:59:30;;;;;;;4.32;1.95;;;;;;;19.79;100.00;100058.72;3608753;39;20087;-63
2021/08/07 11:01:59;;;;;;;5.90;2.08;;;;;;;19.67;100.00;100047.59;3608437;39;20503;-63
2021/08/07 11:04:32;;;;;;;6.30;2.15;;;;;;;19.13;100.00;100055.09;3607743;39;20051;-62
2021/08/07 11:07:08;;;;;;;5.57;2.53;;;;;;;19.19;100.00;100059.69;3608075;39;20409;-62
2021/08/07 11:09:37;;;;;;;6.57;2.33;;;;;;;19.35;100.00;100043.94;3608373;39;20059;-62
2021/08/07 11:12:19;;;;;;;4.63;1.95;;;;;;;19.30;100.00;100041.84;3608246;39;20055;-63
2021/08/07 11:14:48;;;;;;;4.03;1.98;;;;;;;19.25;100.00;100042.47;3608076;39;20047;-62
2021/08/07 11:17:35;;;;;;;4.13;2.22;;;;;;;18.94;100.00;100053.22;3608397;39;20115;-62
2021/08/07 11:20:08;;;;;;;6.35;2.50;;;;;;;18.62;100.00;100061.16;3608104;39;20047;-62
2021/08/07 11:23:17;;;;;;;3.90;2.35;;;;;;;18.28;100.00;100087.50;3608361;39;20048;-62
2021/08/07 11:26:08;;;;;;;6.28;3.10;;;;;;;16.42;100.00;100108.66;3604794;39;20091;-63
2021/08/07 11:29:06;;;;;;;6.28;2.97;;;;;;;16.02;100.00;100115.47;3608447;39;20054;-60